Time;durP1;ratioP1;P1;durP2;ratioP2;P2;SDS_P1;SDS_P2;PMS_P1;PMS_P2;Temp;Humidity;BMP_temperature;BMP_pressure;BME280_temperature;BME280_humidity;BME280_pressure;Samples;Min_cycle;Max_cycle;Signal;HPM_P1;HPM_P2
2021/05/16 00:01:13;;;;;;;10.18;6.15;;;13.70;94.70;;;;;;5033091;28;20021;-91
2021/05/16 00:03:39;;;;;;;8.43;6.10;;;13.70;94.80;;;;;;5033761;28;20040;-91
2021/05/16 00:06:05;;;;;;;9.70;5.03;;;13.70;94.60;;;;;;5033155;28;20052;-91
2021/05/16 00:08:31;;;;;;;9.13;5.32;;;13.70;94.60;;;;;;5032168;28;20402;-91
2021/05/16 00:10:58;;;;;;;8.88;6.45;;;13.60;94.60;;;;;;5032752;28;20031;-91
2021/05/16 00:13:24;;;;;;;13.90;6.35;;;13.60;94.70;;;;;;5033682;28;20061;-91
2021/05/16 00:15:49;;;;;;;9.93;6.18;;;13.60;94.80;;;;;;5042062;28;20013;-92
2021/05/16 00:18:15;;;;;;;8.77;5.93;;;13.60;94.70;;;;;;5034446;28;20562;-91
2021/05/16 00:20:41;;;;;;;11.65;6.35;;;13.50;94.80;;;;;;5031770;28;20029;-91
2021/05/16 00:23:07;;;;;;;9.40;6.18;;;13.50;94.80;;;;;;5032671;28;20029;-91
2021/05/16 00:25:34;;;;;;;10.10;6.40;;;13.50;94.90;;;;;;5032657;28;20041;-91
2021/05/16 00:28:00;;;;;;;8.13;5.57;;;13.50;95.10;;;;;;5032712;28;20041;-91
2021/05/16 00:30:27;;;;;;;9.35;5.30;;;13.50;95.20;;;;;;5032908;28;20414;-90
2021/05/16 00:32:55;;;;;;;10.52;5.95;;;13.50;95.00;;;;;;5034385;28;20053;-91
2021/05/16 00:35:24;;;;;;;10.35;5.97;;;13.50;94.90;;;;;;5032385;28;20029;-91
2021/05/16 00:37:50;;;;;;;9.57;5.50;;;13.50;95.00;;;;;;5032527;28;20029;-91
2021/05/16 00:40:17;;;;;;;8.70;5.32;;;13.50;95.00;;;;;;5033674;28;20025;-91
2021/05/16 00:42:44;;;;;;;13.20;6.28;;;13.50;95.10;;;;;;5031564;28;20339;-91
2021/05/16 00:45:11;;;;;;;8.18;4.82;;;13.40;95.00;;;;;;5033549;28;20108;-91
2021/05/16 00:47:38;;;;;;;9.07;5.03;;;13.40;95.00;;;;;;5032122;28;20040;-91
2021/05/16 00:50:09;;;;;;;10.63;5.90;;;13.40;95.10;;;;;;5032131;28;20137;-91
2021/05/16 00:52:38;;;;;;;9.75;5.47;;;13.40;95.00;;;;;;5031091;28;20049;-91
2021/05/16 00:55:07;;;;;;;8.10;5.47;;;13.40;95.00;;;;;;5032107;28;20025;-91
2021/05/16 00:57:32;;;;;;;7.18;4.60;;;13.40;95.00;;;;;;5032263;28;20033;-91
2021/05/16 00:59:58;;;;;;;8.02;5.07;;;13.40;95.00;;;;;;5032166;28;20401;-91
2021/05/16 01:02:24;;;;;;;8.48;5.32;;;13.40;95.00;;;;;;5031437;28;20038;-91
2021/05/16 01:04:51;;;;;;;8.98;5.65;;;13.30;95.10;;;;;;5032093;28;20360;-91
2021/05/16 01:07:17;;;;;;;7.32;5.13;;;13.30;95.10;;;;;;5033259;28;20108;-91
2021/05/16 01:09:43;;;;;;;7.00;4.82;;;13.30;95.30;;;;;;5031885;28;20561;-91
2021/05/16 01:12:10;;;;;;;9.68;5.78;;;13.30;95.40;;;;;;5031660;28;20136;-91
2021/05/16 01:14:40;;;;;;;7.53;4.93;;;13.20;95.50;;;;;;5031016;28;20021;-91
2021/05/16 01:17:06;;;;;;;6.28;4.20;;;13.20;95.50;;;;;;5031879;28;20494;-91
2021/05/16 01:19:33;;;;;;;5.72;4.10;;;13.20;95.60;;;;;;5031945;28;20028;-90
2021/05/16 01:22:00;;;;;;;4.70;3.72;;;13.20;95.50;;;;;;5031552;28;20124;-91
2021/05/16 01:24:28;;;;;;;6.50;4.47;;;13.20;95.40;;;;;;5030697;28;20056;-91
2021/05/16 01:26:55;;;;;;;6.60;4.20;;;13.20;95.40;;;;;;5032124;28;20401;-91
2021/05/16 01:29:22;;;;;;;5.28;3.90;;;13.20;95.40;;;;;;5035011;28;20109;-90
2021/05/16 01:31:48;;;;;;;9.77;4.75;;;13.20;95.40;;;;;;5036229;28;20048;-91
2021/05/16 01:34:14;;;;;;;5.03;3.97;;;13.20;95.50;;;;;;5041140;28;20022;-91
2021/05/16 01:36:40;;;;;;;8.48;4.63;;;13.10;95.50;;;;;;5030385;28;20040;-92
2021/05/16 01:39:09;;;;;;;5.32;3.80;;;13.20;95.60;;;;;;5031381;28;20025;-91
2021/05/16 01:41:36;;;;;;;8.23;3.92;;;13.10;95.60;;;;;;5031285;28;20034;-91
2021/05/16 01:44:03;;;;;;;5.20;3.95;;;13.10;95.70;;;;;;5031331;28;20104;-92
2021/05/16 01:46:29;;;;;;;6.85;4.30;;;13.10;95.70;;;;;;5030315;28;20037;-89
2021/05/16 01:48:55;;;;;;;7.13;4.07;;;13.10;95.80;;;;;;5032677;28;20040;-89
2021/05/16 01:51:20;;;;;;;5.38;3.78;;;13.00;95.90;;;;;;5030939;28;20399;-89
2021/05/16 01:53:48;;;;;;;8.13;4.97;;;13.00;96.00;;;;;;5031092;28;20061;-89
2021/05/16 01:56:26;;;;;;;6.78;4.47;;;12.90;96.00;;;;;;5030950;28;20029;-91
2021/05/16 01:58:53;;;;;;;6.47;4.22;;;12.90;96.50;;;;;;5032203;28;20498;-91
2021/05/16 02:01:19;;;;;;;5.05;4.10;;;12.90;96.40;;;;;;5030423;28;20025;-91
2021/05/16 02:03:45;;;;;;;5.90;3.90;;;12.90;96.50;;;;;;5031125;28;20036;-89
2021/05/16 02:06:13;;;;;;;5.18;3.83;;;12.90;96.60;;;;;;5031026;28;20040;-91
2021/05/16 02:08:41;;;;;;;6.60;3.92;;;12.80;96.70;;;;;;5030124;28;20025;-89
2021/05/16 02:11:08;;;;;;;6.45;4.38;;;12.80;96.70;;;;;;5030460;28;20037;-89
2021/05/16 02:13:41;;;;;;;4.90;3.65;;;12.80;96.90;;;;;;5031186;28;20029;-89
2021/05/16 02:16:09;;;;;;;6.20;3.83;;;12.80;97.00;;;;;;5031773;28;20171;-89
2021/05/16 02:18:35;;;;;;;7.38;4.03;;;12.80;97.00;;;;;;5030719;28;20034;-89
2021/05/16 02:21:02;;;;;;;6.03;3.92;;;12.80;97.10;;;;;;5030480;28;20094;-90
2021/05/16 02:23:28;;;;;;;5.85;4.00;;;12.80;97.20;;;;;;5030738;28;20165;-89
2021/05/16 02:25:54;;;;;;;7.15;4.15;;;12.70;97.20;;;;;;5030571;28;20112;-89
2021/05/16 02:28:20;;;;;;;5.70;3.78;;;12.80;97.20;;;;;;5031405;28;20471;-90
2021/05/16 02:30:47;;;;;;;6.13;3.90;;;12.70;97.20;;;;;;5030679;28;20037;-90
2021/05/16 02:33:13;;;;;;;6.90;3.95;;;12.80;97.30;;;;;;5034282;28;20032;-89
2021/05/16 02:35:41;;;;;;;5.97;4.03;;;12.70;97.40;;;;;;5030553;28;20029;-89
2021/05/16 02:38:07;;;;;;;4.63;3.58;;;12.70;97.50;;;;;;5030639;28;20482;-89
2021/05/16 02:40:33;;;;;;;5.93;3.90;;;12.70;97.70;;;;;;5029705;28;20112;-89
2021/05/16 02:42:59;;;;;;;4.75;3.60;;;12.80;97.70;;;;;;5030564;28;20493;-90
2021/05/16 02:45:25;;;;;;;5.22;3.97;;;12.80;97.80;;;;;;5030621;28;20538;-89
2021/05/16 02:47:51;;;;;;;6.10;3.88;;;12.80;97.70;;;;;;5030869;28;20133;-89
2021/05/16 02:50:17;;;;;;;5.43;3.55;;;12.80;97.70;;;;;;5030999;28;20112;-89
2021/05/16 02:52:43;;;;;;;5.70;3.78;;;12.80;97.80;;;;;;5030552;28;20049;-91
2021/05/16 02:55:10;;;;;;;6.30;3.97;;;12.90;97.80;;;;;;5030318;28;20032;-89
2021/05/16 02:57:36;;;;;;;5.13;3.53;;;12.90;97.90;;;;;;5030563;28;20029;-90
2021/05/16 03:00:06;;;;;;;4.80;3.50;;;12.90;97.90;;;;;;5030176;28;20109;-89
2021/05/16 03:02:31;;;;;;;4.03;3.63;;;13.00;98.00;;;;;;5029300;28;20041;-89
2021/05/16 03:04:57;;;;;;;5.80;4.07;;;13.00;98.00;;;;;;5030090;28;20030;-89
2021/05/16 03:07:23;;;;;;;10.07;3.65;;;13.00;98.10;;;;;;5030203;28;20470;-89
2021/05/16 03:09:48;;;;;;;7.45;3.92;;;13.10;98.10;;;;;;5030121;28;20399;-89
2021/05/16 03:12:14;;;;;;;4.80;4.00;;;13.10;98.10;;;;;;5030163;28;20544;-89
2021/05/16 03:14:40;;;;;;;4.63;3.60;;;13.20;98.30;;;;;;5033342;28;20060;-89
2021/05/16 03:17:06;;;;;;;5.15;3.70;;;13.20;98.20;;;;;;5046100;28;20051;-90
2021/05/16 03:19:32;;;;;;;5.15;3.67;;;13.30;98.20;;;;;;5034260;28;20025;-90
2021/05/16 03:22:00;;;;;;;4.60;3.80;;;13.40;98.10;;;;;;5055975;28;20014;-90
2021/05/16 03:24:26;;;;;;;5.15;4.03;;;13.50;98.00;;;;;;5039046;28;20123;-90
2021/05/16 03:26:52;;;;;;;6.30;3.80;;;13.60;98.00;;;;;;5035033;28;20100;-90
2021/05/16 03:29:18;;;;;;;6.70;4.20;;;13.70;97.90;;;;;;5036492;28;20056;-90
2021/05/16 03:31:44;;;;;;;5.63;4.35;;;13.80;97.70;;;;;;5036262;28;20052;-90
2021/05/16 03:34:09;;;;;;;6.88;4.88;;;13.90;97.60;;;;;;5035908;28;20108;-90
2021/05/16 03:36:35;;;;;;;7.20;4.25;;;14.00;97.50;;;;;;5033438;28;20033;-90
2021/05/16 03:39:02;;;;;;;8.48;5.38;;;14.10;97.40;;;;;;5033645;28;20026;-90
2021/05/16 03:41:27;;;;;;;6.15;4.47;;;14.20;97.20;;;;;;5034669;28;20021;-90
2021/05/16 03:43:53;;;;;;;8.07;5.00;;;14.40;97.00;;;;;;5033392;28;20442;-90
2021/05/16 03:46:19;;;;;;;9.85;4.78;;;14.50;96.80;;;;;;5033518;28;20021;-90
2021/05/16 03:48:45;;;;;;;10.15;5.18;;;14.60;96.50;;;;;;5034900;28;20417;-89
2021/05/16 03:51:11;;;;;;;9.13;5.68;;;14.80;96.30;;;;;;5033468;28;20037;-90
2021/05/16 03:53:40;;;;;;;9.48;5.85;;;14.90;96.10;;;;;;5033289;28;20032;-90
2021/05/16 03:56:08;;;;;;;14.13;7.97;;;15.10;95.90;;;;;;5033246;28;20474;-90
2021/05/16 03:58:34;;;;;;;13.52;7.55;;;15.20;95.60;;;;;;5034438;28;20395;-91
2021/05/16 04:01:00;;;;;;;13.68;9.90;;;15.40;95.30;;;;;;5033561;28;20026;-90
2021/05/16 04:03:25;;;;;;;14.77;9.45;;;15.50;95.00;;;;;;5033050;28;20540;-90
2021/05/16 04:05:51;;;;;;;18.92;9.95;;;15.70;94.60;;;;;;5032922;28;20372;-90
2021/05/16 04:08:17;;;;;;;14.60;9.55;;;15.90;94.30;;;;;;5033044;28;20026;-90
2021/05/16 04:10:42;;;;;;;12.85;8.60;;;16.00;93.90;;;;;;5033231;28;20192;-90
2021/05/16 04:13:09;;;;;;;13.95;8.20;;;16.20;93.50;;;;;;5037410;28;20037;-90
2021/05/16 04:15:34;;;;;;;13.82;7.20;;;16.30;93.00;;;;;;5035864;28;20021;-90
2021/05/16 04:18:00;;;;;;;9.05;6.65;;;16.50;92.50;;;;;;5033010;28;20040;-90
2021/05/16 04:20:26;;;;;;;7.90;5.85;;;16.70;92.00;;;;;;5031793;28;20029;-90
2021/05/16 04:22:51;;;;;;;8.13;5.72;;;16.90;91.60;;;;;;5032829;28;20033;-91
2021/05/16 04:25:17;;;;;;;6.65;4.68;;;17.00;91.10;;;;;;5034016;28;20025;-90
2021/05/16 04:27:43;;;;;;;6.00;4.50;;;17.20;90.50;;;;;;5032977;28;20037;-90
2021/05/16 04:30:10;;;;;;;7.15;4.85;;;17.30;90.20;;;;;;5032548;28;20021;-90
2021/05/16 04:32:35;;;;;;;9.93;6.43;;;17.50;89.60;;;;;;5032195;28;20045;-90
2021/05/16 04:35:01;;;;;;;7.20;4.72;;;17.60;88.50;;;;;;5033737;28;20516;-90
2021/05/16 04:37:27;;;;;;;7.78;4.78;;;17.80;87.50;;;;;;5032518;28;20072;-90
2021/05/16 04:39:52;;;;;;;7.72;4.97;;;18.00;86.50;;;;;;5032529;28;20052;-90
2021/05/16 04:42:18;;;;;;;7.40;5.15;;;18.10;85.60;;;;;;5032629;28;20451;-90
2021/05/16 04:44:44;;;;;;;9.80;4.97;;;18.30;83.80;;;;;;5031704;28;20144;-90
2021/05/16 04:47:10;;;;;;;9.02;4.78;;;18.50;82.40;;;;;;5032641;28;20117;-90
2021/05/16 04:49:39;;;;;;;6.40;4.95;;;18.70;81.50;;;;;;5032632;28;20120;-90
2021/05/16 04:52:11;;;;;;;7.28;4.90;;;18.90;80.30;;;;;;5032543;28;20053;-90
2021/05/16 04:54:37;;;;;;;5.70;4.10;;;19.20;80.40;;;;;;5031781;28;20444;-91
2021/05/16 04:57:03;;;;;;;5.88;4.50;;;19.50;81.30;;;;;;5033854;28;20061;-90
2021/05/16 04:59:28;;;;;;;4.75;3.80;;;19.90;81.60;;;;;;5033161;28;20033;-90
2021/05/16 05:01:54;;;;;;;4.38;3.30;;;20.50;80.30;;;;;;5033155;28;20120;-90
2021/05/16 05:04:20;;;;;;;4.95;3.20;;;21.00;78.70;;;;;;5037628;28;20034;-91
2021/05/16 05:06:46;;;;;;;4.68;2.65;;;21.50;75.80;;;;;;5030871;28;20045;-91
2021/05/16 05:09:11;;;;;;;2.60;2.25;;;22.00;74.50;;;;;;5031958;28;20028;-91
2021/05/16 05:11:37;;;;;;;4.40;2.47;;;22.50;73.10;;;;;;5031864;28;20041;-91
2021/05/16 05:14:03;;;;;;;2.78;2.33;;;23.00;71.70;;;;;;5034231;28;20022;-91
2021/05/16 05:16:29;;;;;;;2.90;2.13;;;23.40;69.90;;;;;;5031205;28;20466;-91
2021/05/16 05:18:54;;;;;;;2.85;2.47;;;23.80;67.40;;;;;;5031639;28;20037;-91
2021/05/16 05:21:20;;;;;;;5.90;2.58;;;24.10;65.90;;;;;;5031613;28;20032;-91
2021/05/16 05:23:46;;;;;;;4.85;2.45;;;24.20;65.20;;;;;;5031583;28;20026;-91
2021/05/16 05:26:11;;;;;;;5.38;2.60;;;24.40;64.10;;;;;;5031466;28;20071;-91
2021/05/16 05:28:37;;;;;;;3.35;2.30;;;24.60;62.80;;;;;;5032554;28;20079;-91
2021/05/16 05:31:03;;;;;;;2.63;2.42;;;24.90;62.60;;;;;;5033119;28;20037;-92
2021/05/16 05:33:29;;;;;;;3.35;2.20;;;25.20;61.00;;;;;;5033355;28;20379;-91
2021/05/16 05:35:55;;;;;;;2.30;2.10;;;25.20;60.80;;;;;;5031647;28;20080;-91
2021/05/16 05:38:21;;;;;;;3.38;1.60;;;25.40;59.10;;;;;;5033637;28;20029;-91
2021/05/16 05:40:48;;;;;;;3.65;2.00;;;25.50;58.80;;;;;;5031404;28;20544;-91
2021/05/16 05:43:14;;;;;;;2.65;1.67;;;25.80;59.00;;;;;;5032116;28;20034;-91
2021/05/16 05:45:40;;;;;;;7.18;2.15;;;26.30;58.90;;;;;;5031552;28;20471;-91
2021/05/16 05:48:06;;;;;;;4.78;1.77;;;26.70;58.00;;;;;;5032450;28;20041;-92
2021/05/16 05:50:32;;;;;;;1.73;1.60;;;27.00;56.90;;;;;;5033642;28;20025;-92
2021/05/16 05:53:02;;;;;;;3.08;1.52;;;27.20;54.90;;;;;;5036001;28;20053;-91
2021/05/16 05:55:32;;;;;;;2.03;1.77;;;27.40;55.10;;;;;;5038184;28;20017;-91
2021/05/16 05:57:58;;;;;;;2.47;1.90;;;27.50;53.60;;;;;;5025812;28;20045;-91
2021/05/16 06:00:34;;;;;;;2.85;2.10;;;27.40;52.80;;;;;;5026929;28;20090;-92
2021/05/16 06:03:00;;;;;;;4.45;2.30;;;27.40;51.80;;;;;;5022397;28;20046;-90
2021/05/16 06:05:28;;;;;;;3.17;2.20;;;27.20;52.10;;;;;;5024080;28;20029;-90
2021/05/16 06:07:57;;;;;;;3.47;2.63;;;27.40;51.80;;;;;;5016269;28;20036;-91
2021/05/16 06:10:24;;;;;;;4.45;2.38;;;27.40;51.20;;;;;;5018088;28;20026;-90
2021/05/16 06:12:53;;;;;;;2.83;2.30;;;27.30;51.10;;;;;;5018002;28;20042;-90
2021/05/16 06:15:22;;;;;;;2.22;1.23;;;27.30;51.40;;;;;;5022325;28;20037;-91
2021/05/16 06:17:48;;;;;;;1.70;1.60;;;27.50;50.40;;;;;;5015784;28;20030;-91
2021/05/16 06:20:14;;;;;;;1.55;1.45;;;27.50;49.50;;;;;;5022145;22;20052;-89
2021/05/16 06:22:40;;;;;;;3.05;1.50;;;27.60;49.50;;;;;;5017344;28;20030;-91
2021/05/16 06:25:12;;;;;;;3.90;1.40;;;27.70;48.40;;;;;;5018522;28;20037;-92
2021/05/16 06:27:44;;;;;;;1.50;1.30;;;27.70;48.50;;;;;;5022309;28;20041;-91
2021/05/16 06:30:11;;;;;;;1.30;1.20;;;27.80;48.20;;;;;;5022483;28;20057;-90
2021/05/16 06:32:42;;;;;;;1.27;1.17;;;27.90;48.10;;;;;;5020135;28;20018;-92
2021/05/16 06:35:09;;;;;;;2.03;1.15;;;28.00;48.30;;;;;;5015101;28;20031;-89
2021/05/16 06:37:35;;;;;;;1.77;1.27;;;28.20;48.50;;;;;;5017119;28;20030;-90
2021/05/16 06:40:01;;;;;;;1.00;0.90;;;28.50;47.60;;;;;;5012773;28;20036;-90
2021/05/16 06:42:30;;;;;;;1.40;0.93;;;28.50;46.90;;;;;;5014921;28;20439;-90
2021/05/16 06:44:56;;;;;;;1.23;1.00;;;28.40;46.00;;;;;;5016058;28;20039;-92
2021/05/16 06:47:23;;;;;;;1.80;1.15;;;28.50;46.10;;;;;;5017908;28;20022;-90
2021/05/16 06:49:52;;;;;;;1.63;1.30;;;28.20;45.00;;;;;;5007973;28;20030;-90
2021/05/16 06:52:21;;;;;;;1.77;1.10;;;27.90;45.70;;;;;;5016647;28;20049;-91
2021/05/16 06:54:50;;;;;;;1.58;1.20;;;27.60;45.60;;;;;;5018890;28;20030;-92
2021/05/16 06:57:17;;;;;;;1.85;1.23;;;27.40;46.20;;;;;;5015583;28;20499;-91
2021/05/16 06:59:43;;;;;;;2.90;0.98;;;27.40;47.10;;;;;;5017616;28;20030;-91
2021/05/16 07:02:09;;;;;;;3.08;1.15;;;27.90;47.30;;;;;;5016538;28;20022;-90
2021/05/16 07:04:34;;;;;;;1.20;1.10;;;29.00;47.40;;;;;;5021468;28;20093;-91
2021/05/16 07:07:00;;;;;;;1.50;1.20;;;30.00;45.90;;;;;;5024204;28;20030;-90
2021/05/16 07:09:26;;;;;;;3.33;1.00;;;30.70;45.10;;;;;;5015063;28;20448;-90
2021/05/16 07:11:52;;;;;;;3.05;1.30;;;31.20;44.50;;;;;;5016907;28;20037;-91
2021/05/16 07:14:18;;;;;;;1.77;1.42;;;31.70;43.90;;;;;;5027172;28;20064;-92
2021/05/16 07:16:44;;;;;;;1.35;1.25;;;32.00;43.00;;;;;;5016823;28;20056;-92
2021/05/16 07:19:09;;;;;;;2.22;1.38;;;32.50;42.20;;;;;;5016126;28;20475;-92
2021/05/16 07:21:35;;;;;;;2.38;1.00;;;33.00;42.30;;;;;;5015056;28;20368;-92
2021/05/16 07:24:09;;;;;;;2.22;0.77;;;33.30;40.60;;;;;;5018460;28;20030;-92
2021/05/16 07:26:35;;;;;;;2.25;1.10;;;33.30;39.50;;;;;;5016759;28;20041;-91
2021/05/16 07:29:00;;;;;;;0.82;0.80;;;32.90;37.90;;;;;;5017021;28;20469;-91
2021/05/16 07:31:26;;;;;;;3.58;1.02;;;32.50;38.00;;;;;;5017110;28;20046;-92
2021/05/16 07:33:52;;;;;;;0.75;0.75;;;32.10;38.90;;;;;;5017664;28;20497;-92
2021/05/16 07:36:20;;;;;;;1.58;0.80;;;31.80;39.10;;;;;;5019883;28;20053;-92
2021/05/16 07:38:46;;;;;;;0.70;0.70;;;31.20;39.10;;;;;;5015571;28;20025;-90
2021/05/16 07:41:12;;;;;;;0.93;0.60;;;30.60;39.50;;;;;;5016995;28;20045;-91
2021/05/16 07:43:38;;;;;;;0.52;0.50;;;30.70;39.80;;;;;;5019292;28;20014;-91
2021/05/16 07:46:04;;;;;;;2.92;0.70;;;31.00;39.70;;;;;;5019279;28;20171;-91
2021/05/16 07:48:30;;;;;;;2.90;0.85;;;31.50;39.90;;;;;;5018583;28;20029;-91
2021/05/16 07:50:58;;;;;;;1.55;0.50;;;32.10;40.30;;;;;;5022130;28;20033;-91
2021/05/16 07:53:25;;;;;;;0.75;0.45;;;32.80;40.40;;;;;;5023680;28;20026;-91
2021/05/16 07:55:51;;;;;;;0.70;0.70;;;33.00;38.70;;;;;;5004541;28;20361;-91
2021/05/16 07:58:17;;;;;;;1.27;0.80;;;33.20;39.50;;;;;;5000076;28;20022;-89
2021/05/16 08:00:44;;;;;;;0.63;0.63;;;33.50;38.40;;;;;;4996476;28;20127;-89
2021/05/16 08:03:09;;;;;;;1.13;0.88;;;33.70;37.60;;;;;;5009092;28;20037;-90
2021/05/16 08:05:35;;;;;;;1.30;0.80;;;33.90;37.70;;;;;;5001585;28;20035;-90
2021/05/16 08:08:01;;;;;;;0.40;0.40;;;33.90;37.80;;;;;;5011210;28;20565;-89
2021/05/16 08:10:27;;;;;;;0.57;0.57;;;34.00;37.50;;;;;;5015193;28;20229;-90
2021/05/16 08:12:54;;;;;;;0.95;0.70;;;33.80;36.10;;;;;;5014267;28;20125;-89
2021/05/16 08:15:20;;;;;;;0.93;0.60;;;33.10;36.70;;;;;;5016643;28;20105;-89
2021/05/16 08:17:46;;;;;;;0.45;0.45;;;32.50;37.10;;;;;;5016574;28;20510;-88
2021/05/16 08:20:12;;;;;;;2.30;0.63;;;32.30;37.40;;;;;;5001484;28;20033;-91
2021/05/16 08:22:38;;;;;;;0.80;0.45;;;32.40;37.60;;;;;;4993874;28;20038;-90
2021/05/16 08:25:07;;;;;;;0.80;0.70;;;32.60;37.90;;;;;;4993951;28;20460;-92
2021/05/16 08:27:33;;;;;;;0.85;0.73;;;33.00;37.00;;;;;;4993172;28;20121;-92
2021/05/16 08:29:59;;;;;;;0.77;0.50;;;33.20;36.70;;;;;;4995119;28;20535;-92
2021/05/16 08:32:24;;;;;;;1.50;0.60;;;33.50;36.40;;;;;;5010209;28;20041;-91
2021/05/16 08:34:50;;;;;;;1.45;0.70;;;33.50;36.70;;;;;;5014545;28;20025;-91
2021/05/16 08:37:16;;;;;;;0.82;0.60;;;33.70;36.90;;;;;;5012407;28;20034;-91
2021/05/16 08:39:42;;;;;;;2.85;1.25;;;34.00;36.50;;;;;;5012892;28;20537;-90
2021/05/16 08:42:09;;;;;;;0.40;0.40;;;34.30;35.50;;;;;;5012031;28;20037;-91
2021/05/16 08:44:35;;;;;;;0.63;0.50;;;34.40;34.90;;;;;;5012169;28;20092;-91
2021/05/16 08:47:02;;;;;;;0.95;0.50;;;34.60;35.30;;;;;;5010235;28;20038;-90
2021/05/16 08:49:29;;;;;;;0.85;0.70;;;34.80;34.30;;;;;;5013201;28;20076;-91
2021/05/16 08:51:55;;;;;;;1.05;0.70;;;34.40;34.30;;;;;;5008184;28;20046;-90
2021/05/16 08:54:22;;;;;;;0.82;0.82;;;34.30;35.10;;;;;;5012628;28;20475;-90
2021/05/16 08:56:50;;;;;;;0.70;0.60;;;34.30;34.40;;;;;;5009172;28;20030;-90
2021/05/16 08:59:17;;;;;;;0.60;0.60;;;34.40;35.10;;;;;;5011552;28;20124;-92
2021/05/16 09:01:48;;;;;;;0.77;0.70;;;34.70;35.40;;;;;;5009577;28;20678;-90
2021/05/16 09:04:24;;;;;;;0.70;0.70;;;35.30;34.30;;;;;;5010179;28;20030;-92
2021/05/16 09:06:56;;;;;;;1.92;0.50;;;35.20;33.90;;;;;;4996501;28;20057;-91
2021/05/16 09:09:26;;;;;;;0.50;0.50;;;35.00;34.30;;;;;;5005557;28;20041;-91
2021/05/16 09:12:04;;;;;;;1.02;0.40;;;35.10;34.50;;;;;;5004614;28;20101;-89
2021/05/16 09:14:50;;;;;;;0.40;0.40;;;35.20;34.60;;;;;;5012189;28;20120;-89
2021/05/16 09:17:34;;;;;;;0.68;0.50;;;35.40;34.40;;;;;;5011473;28;20030;-90
2021/05/16 09:20:07;;;;;;;0.65;0.65;;;35.50;34.90;;;;;;4996830;28;20398;-90
2021/05/16 09:22:39;;;;;;;0.73;0.40;;;35.50;33.90;;;;;;4998702;28;20037;-90
2021/05/16 09:25:22;;;;;;;0.50;0.50;;;35.50;34.00;;;;;;4992034;28;20065;-90
2021/05/16 09:27:56;;;;;;;2.83;0.40;;;35.70;34.30;;;;;;4991379;28;20069;-90
2021/05/16 09:30:23;;;;;;;0.95;0.52;;;35.60;33.80;;;;;;4991971;28;20026;-90
2021/05/16 09:33:23;;;;;;;0.40;0.40;;;35.70;33.80;;;;;;5003416;28;20034;-90
2021/05/16 09:35:50;;;;;;;0.40;0.40;;;35.30;33.80;;;;;;4983943;28;20145;-90
2021/05/16 09:38:19;;;;;;;0.40;0.40;;;34.90;33.40;;;;;;4999761;28;20038;-90
2021/05/16 09:40:44;;;;;;;0.55;0.55;;;34.90;33.60;;;;;;5022261;28;20470;-90
2021/05/16 09:43:12;;;;;;;0.50;0.50;;;34.80;33.80;;;;;;5003133;28;20029;-89
2021/05/16 09:45:45;;;;;;;0.47;0.40;;;34.70;33.70;;;;;;4992831;28;20031;-89
2021/05/16 09:48:31;;;;;;;0.40;0.40;;;34.50;33.50;;;;;;5011621;28;20025;-89
2021/05/16 09:51:16;;;;;;;0.30;0.30;;;34.20;33.80;;;;;;5006645;28;20129;-90
2021/05/16 09:53:52;;;;;;;0.30;0.30;;;34.60;34.30;;;;;;4995792;28;20034;-89
2021/05/16 09:56:32;;;;;;;0.43;0.40;;;34.90;34.20;;;;;;5010005;28;20076;-89
2021/05/16 09:59:01;;;;;;;0.50;0.50;;;35.30;33.30;;;;;;5012007;28;20030;-89
2021/05/16 10:01:28;;;;;;;0.38;0.30;;;35.40;33.00;;;;;;5006848;28;20045;-90
2021/05/16 10:03:58;;;;;;;0.65;0.40;;;35.50;32.90;;;;;;4993498;28;20034;-90
2021/05/16 10:06:25;;;;;;;0.40;0.40;;;35.20;32.30;;;;;;5003667;28;20108;-89
2021/05/16 10:08:51;;;;;;;0.88;0.50;;;35.20;32.80;;;;;;5002260;28;20027;-88
2021/05/16 10:11:24;;;;;;;0.45;0.45;;;35.10;32.70;;;;;;4994639;28;20399;-89
2021/05/16 10:13:57;;;;;;;0.50;0.50;;;35.40;32.80;;;;;;4990361;28;20084;-90
2021/05/16 10:16:23;;;;;;;3.63;0.43;;;35.20;31.90;;;;;;4995395;28;20038;-89
2021/05/16 10:18:51;;;;;;;2.05;0.50;;;34.60;31.90;;;;;;5006571;28;20088;-89
2021/05/16 10:21:17;;;;;;;1.35;0.43;;;34.40;32.60;;;;;;4996329;28;20027;-90
2021/05/16 10:23:43;;;;;;;0.50;0.50;;;34.40;32.90;;;;;;4990700;28;20015;-90
2021/05/16 10:26:25;;;;;;;0.30;0.30;;;34.10;32.80;;;;;;4990837;28;20037;-89
2021/05/16 10:28:58;;;;;;;0.47;0.43;;;33.90;33.20;;;;;;4991457;28;20018;-88
2021/05/16 10:31:53;;;;;;;0.68;0.47;;;33.80;32.90;;;;;;4995981;28;20480;-88
2021/05/16 10:34:32;;;;;;;1.95;0.45;;;33.60;32.50;;;;;;5002524;28;20050;-88
2021/05/16 10:37:00;;;;;;;0.52;0.40;;;33.50;33.10;;;;;;4999667;28;20064;-90
2021/05/16 10:39:44;;;;;;;0.30;0.30;;;33.70;33.30;;;;;;5008498;28;20030;-89
2021/05/16 10:42:31;;;;;;;2.38;0.30;;;34.20;33.20;;;;;;5007834;28;20164;-88
2021/05/16 10:45:22;;;;;;;0.40;0.40;;;34.60;33.00;;;;;;4988107;28;20495;-88
2021/05/16 10:47:53;;;;;;;0.98;0.50;;;35.40;32.80;;;;;;4992233;28;20491;-90
2021/05/16 10:50:25;;;;;;;0.60;0.50;;;36.00;32.70;;;;;;5006646;28;20053;-88
2021/05/16 10:53:05;;;;;;;0.40;0.40;;;36.30;31.70;;;;;;4988359;28;20042;-91
2021/05/16 10:55:32;;;;;;;0.63;0.30;;;36.20;31.50;;;;;;4996011;28;20025;-89
2021/05/16 10:57:59;;;;;;;0.43;0.40;;;36.10;31.50;;;;;;5008981;28;20026;-88
2021/05/16 11:00:29;;;;;;;1.35;0.40;;;36.50;31.70;;;;;;5007280;28;20076;-89
2021/05/16 11:03:08;;;;;;;0.50;0.40;;;37.00;31.60;;;;;;5005786;28;20042;-89
2021/05/16 11:08:30;;;;;;;2.15;0.75;;;37.20;30.40;;;;;;5002815;28;20045;-89
2021/05/16 11:10:58;;;;;;;0.63;0.50;;;36.70;30.40;;;;;;4964641;28;20037;-87
2021/05/16 11:13:27;;;;;;;2.65;0.50;;;36.20;30.70;;;;;;5003143;28;20038;-90
2021/05/16 11:15:54;;;;;;;1.10;0.40;;;35.90;31.20;;;;;;4990033;28;20022;-88
2021/05/16 11:18:23;;;;;;;1.10;0.50;;;36.00;31.30;;;;;;4994748;28;20040;-88
2021/05/16 11:20:58;;;;;;;0.57;0.40;;;36.00;31.30;;;;;;4992276;28;20038;-87
2021/05/16 11:23:32;;;;;;;0.63;0.63;;;35.90;31.30;;;;;;4991577;28;20042;-90
2021/05/16 11:25:59;;;;;;;0.63;0.40;;;35.80;31.10;;;;;;4998027;28;20113;-90
2021/05/16 11:28:27;;;;;;;0.57;0.57;;;35.60;31.00;;;;;;5005348;28;20038;-89
2021/05/16 11:30:54;;;;;;;0.98;0.50;;;35.40;31.10;;;;;;5002800;28;20460;-91
2021/05/16 11:33:31;;;;;;;1.55;0.30;;;35.00;31.00;;;;;;4999714;28;20072;-89
2021/05/16 11:36:07;;;;;;;0.65;0.52;;;34.60;31.50;;;;;;5005624;28;20434;-89
2021/05/16 11:38:36;;;;;;;0.50;0.50;;;34.30;31.70;;;;;;5013376;28;20022;-91
2021/05/16 11:41:03;;;;;;;1.42;1.00;;;34.20;31.60;;;;;;5013726;28;20076;-90
2021/05/16 11:43:34;;;;;;;0.60;0.60;;;33.90;31.80;;;;;;5016919;28;20415;-90
2021/05/16 11:46:01;;;;;;;0.85;0.50;;;33.60;31.60;;;;;;5014258;28;20533;-91
2021/05/16 11:48:31;;;;;;;0.50;0.50;;;33.10;32.30;;;;;;5013312;28;20029;-90
2021/05/16 11:51:17;;;;;;;0.57;0.55;;;32.60;31.70;;;;;;5014924;28;20092;-92
2021/05/16 11:53:45;;;;;;;1.63;0.50;;;32.30;32.20;;;;;;5013507;28;20511;-92
2021/05/16 11:56:23;;;;;;;0.43;0.43;;;32.30;32.60;;;;;;5012873;28;20105;-91
2021/05/16 11:58:57;;;;;;;0.88;0.30;;;32.50;32.70;;;;;;5015518;28;20105;-91
2021/05/16 12:01:25;;;;;;;1.00;0.30;;;32.40;32.50;;;;;;5015056;28;20105;-90
2021/05/16 12:03:54;;;;;;;0.55;0.50;;;32.10;32.50;;;;;;5015020;28;20483;-90
2021/05/16 12:06:20;;;;;;;0.52;0.50;;;31.80;32.40;;;;;;5021871;28;20026;-90
2021/05/16 12:09:01;;;;;;;0.47;0.40;;;31.50;32.60;;;;;;5036112;28;20033;-89
2021/05/16 12:11:29;;;;;;;1.05;0.60;;;31.40;33.20;;;;;;5015176;28;20494;-91
2021/05/16 12:14:18;;;;;;;2.92;0.47;;;31.20;32.90;;;;;;5014637;28;20610;-90
2021/05/16 12:16:53;;;;;;;0.70;0.47;;;31.00;32.90;;;;;;5012819;28;20042;-91
2021/05/16 12:19:31;;;;;;;0.40;0.40;;;30.70;33.10;;;;;;5014099;28;20060;-92
2021/05/16 12:22:05;;;;;;;0.63;0.40;;;30.50;33.50;;;;;;5014761;28;20022;-90
2021/05/16 12:24:33;;;;;;;0.55;0.55;;;30.30;33.50;;;;;;5015980;28;20093;-90
2021/05/16 12:26:59;;;;;;;0.88;0.65;;;30.20;33.50;;;;;;5018121;28;20034;-91
2021/05/16 12:29:27;;;;;;;0.63;0.55;;;30.00;33.60;;;;;;5014545;28;20026;-90
2021/05/16 12:31:53;;;;;;;2.10;0.50;;;29.90;34.00;;;;;;5016192;28;20076;-90
2021/05/16 12:34:28;;;;;;;2.78;0.70;;;29.80;33.90;;;;;;5021001;28;20029;-90
2021/05/16 12:36:59;;;;;;;0.63;0.63;;;29.60;33.80;;;;;;5015523;28;20390;-90
2021/05/16 12:39:39;;;;;;;1.02;0.88;;;29.40;34.00;;;;;;5028403;28;20022;-91
2021/05/16 12:42:28;;;;;;;1.23;0.70;;;29.10;34.10;;;;;;5032781;28;20045;-90
2021/05/16 12:44:56;;;;;;;0.55;0.40;;;28.90;34.00;;;;;;5013917;28;20036;-90
2021/05/16 12:47:26;;;;;;;1.02;0.50;;;28.60;34.50;;;;;;5014817;28;20141;-89
2021/05/16 12:50:08;;;;;;;1.58;0.70;;;28.60;34.90;;;;;;5014089;28;20028;-90
2021/05/16 12:52:34;;;;;;;1.02;0.98;;;28.60;34.70;;;;;;5012454;28;20072;-89
2021/05/16 12:55:01;;;;;;;1.38;0.90;;;28.60;34.30;;;;;;5012990;28;20065;-89